LFLN/SYT METAR and TAF weather

Enter ICAO airport designator
Station Type Date Time Source
LFLN METAR 2024/04/15 09:30 UTC NOAA

LFLN 150930Z AUTO 28007KT 250V320 9999 SCT023 BKN029 OVC034 15/12 Q1018 TEMPO 27015G25KT BKN013


Station Type Date Time Source
LFLN Decoded METAR 2024/04/15 09:30 UTC NOAA

Saint-Yan, France (LFLN) 46-25N 004-01E 244M
Apr 15, 2024 - 05:30 AM EDT / 2024.04.15 0930 UTC
Wind: from the W (280 degrees) at 8 MPH (7 KT) (direction variable):0
Visibility: greater than 7 mile(s):0
Sky conditions: overcast
Temperature: 59 F (15 C)
Dew Point: 53 F (12 C)
Relative Humidity: 82%
Pressure (altimeter): 30.06 in. Hg (1018 hPa)
ob: LFLN 150930Z AUTO 28007KT 250V320 9999 SCT023 BKN029 OVC034 15/12 Q1018 TEMPO 27015G25KT BKN013
cycle: 9

Station Type Date Time Source
LFLN TAF UTC NOAA

Error!

Example: see airport list